createdAt,value
2018-06-10T00:02:10.073Z,19.07
2018-06-10T00:04:39.070Z,19.77
2018-06-10T00:07:07.843Z,19.63
2018-06-10T00:09:36.958Z,17.50
2018-06-10T00:12:07.782Z,18.97
2018-06-10T00:14:37.104Z,18.73
2018-06-10T00:17:06.076Z,17.63
2018-06-10T00:19:34.899Z,17.63
2018-06-10T00:22:04.106Z,17.73
2018-06-10T00:24:33.628Z,18.57
2018-06-10T00:27:02.395Z,16.90
2018-06-10T00:29:31.164Z,17.87
2018-06-10T00:32:04.677Z,16.90
2018-06-10T00:34:33.974Z,17.27
2018-06-10T00:37:03.200Z,18.70
2018-06-10T00:39:32.334Z,17.30
2018-06-10T00:42:01.439Z,16.90
2018-06-10T00:44:30.808Z,16.53
2018-06-10T00:47:00.295Z,19.03
2018-06-10T00:49:29.292Z,17.57
2018-06-10T00:51:58.426Z,16.70
2018-06-10T00:54:27.777Z,17.70
2018-06-10T00:56:56.782Z,17.70
2018-06-10T00:59:25.802Z,18.00
2018-06-10T01:01:55.094Z,17.20
2018-06-10T01:04:24.420Z,16.90
2018-06-10T01:06:53.471Z,17.27
2018-06-10T01:09:22.620Z,18.10
2018-06-10T01:11:51.456Z,17.07
2018-06-10T01:14:20.571Z,16.33
2018-06-10T01:16:49.523Z,16.80
2018-06-10T01:19:18.267Z,17.80
2018-06-10T01:21:47.342Z,17.57
2018-06-10T01:24:16.220Z,16.93
2018-06-10T01:26:52.228Z,16.40
2018-06-10T01:29:21.312Z,16.50
2018-06-10T01:31:50.111Z,16.73
2018-06-10T01:34:19.157Z,16.10
2018-06-10T01:36:48.297Z,15.80
2018-06-10T01:39:17.100Z,14.67
2018-06-10T01:41:46.180Z,15.83
2018-06-10T01:44:15.338Z,15.70
2018-06-10T01:46:44.360Z,15.67
2018-06-10T01:49:13.214Z,14.70
2018-06-10T01:51:42.327Z,14.90
2018-06-10T01:54:11.384Z,16.73
2018-06-10T01:56:40.204Z,14.90
2018-06-10T01:59:09.033Z,15.90
2018-06-10T02:01:38.455Z,15.77
2018-06-10T02:04:07.323Z,17.27
2018-06-10T02:06:36.402Z,19.57
2018-06-10T02:09:07.074Z,19.40
2018-06-10T02:11:36.548Z,18.07
2018-06-10T02:14:05.413Z,18.07
2018-06-10T02:16:34.505Z,21.13
2018-06-10T02:19:03.347Z,19.77
2018-06-10T02:21:32.221Z,18.73
2018-06-10T02:24:01.452Z,20.17
2018-06-10T02:26:31.636Z,19.53
2018-06-10T02:29:00.461Z,20.90
2018-06-10T02:31:29.704Z,21.63
2018-06-10T02:33:58.840Z,20.70
2018-06-10T02:36:28.275Z,21.93
2018-06-10T02:38:57.692Z,21.20
2018-06-10T02:41:26.873Z,22.20
2018-06-10T02:43:55.700Z,21.87
2018-06-10T02:46:25.100Z,20.03
2018-06-10T02:48:54.215Z,20.70
2018-06-10T02:51:23.387Z,21.20
2018-06-10T02:53:52.173Z,21.03
2018-06-10T02:56:21.429Z,20.53
2018-06-10T02:58:50.492Z,20.10
2018-06-10T03:01:19.885Z,20.73
2018-06-10T03:03:49.620Z,20.90
2018-06-10T03:06:19.249Z,21.03
2018-06-10T03:08:48.093Z,19.70
2018-06-10T03:11:16.990Z,18.43
2018-06-10T03:13:46.188Z,20.83
2018-06-10T03:16:15.075Z,21.27
2018-06-10T03:18:44.266Z,21.73
2018-06-10T03:21:13.367Z,20.10
2018-06-10T03:23:42.800Z,20.93
2018-06-10T03:26:11.897Z,22.43
2018-06-10T03:28:41.201Z,21.63
2018-06-10T03:31:10.045Z,21.93
2018-06-10T03:33:39.286Z,21.03
2018-06-10T03:36:08.697Z,20.27
2018-06-10T03:38:37.791Z,20.20
2018-06-10T03:41:06.638Z,20.47
2018-06-10T03:43:35.795Z,20.37
2018-06-10T03:46:04.976Z,20.37
2018-06-10T03:48:33.770Z,21.90
2018-06-10T03:51:03.144Z,21.37
2018-06-10T03:53:32.846Z,20.67
2018-06-10T03:56:01.960Z,21.47
2018-06-10T03:58:31.134Z,19.33
2018-06-10T04:00:59.970Z,21.83
2018-06-10T04:03:28.797Z,21.27
2018-06-10T04:05:57.632Z,22.10
2018-06-10T04:08:26.986Z,22.07
2018-06-10T04:10:55.807Z,19.80
2018-06-10T04:13:24.960Z,21.87
2018-06-10T04:15:54.183Z,20.17
2018-06-10T04:18:23.314Z,20.23
2018-06-10T04:20:52.190Z,21.03
2018-06-10T04:23:21.473Z,20.40
2018-06-10T04:25:50.862Z,21.40
2018-06-10T04:28:20.330Z,22.23
2018-06-10T04:30:50.027Z,22.67
2018-06-10T04:33:19.101Z,22.63
2018-06-10T04:35:47.998Z,21.43
2018-06-10T04:38:17.290Z,21.20
2018-06-10T04:40:46.087Z,24.27
2018-06-10T04:43:15.489Z,22.10
2018-06-10T04:45:44.382Z,23.97
2018-06-10T04:48:13.555Z,23.00
2018-06-10T04:50:42.417Z,25.13
2018-06-10T04:53:11.595Z,23.13
2018-06-10T04:55:40.837Z,25.03
2018-06-10T04:58:10.258Z,23.63
2018-06-10T05:00:39.475Z,24.77
2018-06-10T05:03:08.297Z,21.53
2018-06-10T05:05:37.183Z,22.20
2018-06-10T05:08:06.323Z,25.20
2018-06-10T05:10:35.832Z,25.03
2018-06-10T05:13:05.391Z,24.40
2018-06-10T05:15:34.493Z,25.43
2018-06-10T05:18:03.564Z,25.83
2018-06-10T05:20:32.393Z,24.63
2018-06-10T05:23:02.262Z,25.87
2018-06-10T05:25:31.498Z,27.63
2018-06-10T05:28:00.603Z,25.60
2018-06-10T05:30:29.729Z,28.30
2018-06-10T05:32:59.451Z,26.60
2018-06-10T05:35:28.415Z,26.17
2018-06-10T05:37:57.576Z,27.47
2018-06-10T05:40:27.540Z,29.33
2018-06-10T05:43:08.534Z,28.70
2018-06-10T05:45:37.764Z,26.97
2018-06-10T05:48:06.867Z,31.13
2018-06-10T05:50:35.938Z,26.53
2018-06-10T05:53:05.529Z,28.30
2018-06-10T05:55:34.398Z,29.03
2018-06-10T05:58:03.436Z,26.17
2018-06-10T06:00:32.987Z,27.93
2018-06-10T06:03:02.848Z,24.70
2018-06-10T06:05:32.458Z,23.77
2018-06-10T06:08:01.758Z,22.67
2018-06-10T06:10:30.802Z,23.77
2018-06-10T06:12:59.861Z,23.50
2018-06-10T06:15:29.442Z,25.00
2018-06-10T06:17:58.394Z,25.23
2018-06-10T06:20:27.998Z,21.80
2018-06-10T06:22:57.831Z,25.87
2018-06-10T06:25:26.964Z,22.73
2018-06-10T06:27:57.293Z,21.57
2018-06-10T06:30:26.337Z,23.53
2018-06-10T06:32:55.842Z,26.17
2018-06-10T06:35:25.521Z,25.70
2018-06-10T06:37:55.108Z,24.50
2018-06-10T06:40:24.779Z,25.50
2018-06-10T06:42:54.234Z,23.73
2018-06-10T06:45:23.679Z,24.00
2018-06-10T06:47:53.459Z,26.40
2018-06-10T06:50:23.706Z,23.20
2018-06-10T06:53:03.621Z,23.80
2018-06-10T06:55:33.111Z,20.70
2018-06-10T06:58:02.221Z,21.90
2018-06-10T07:00:32.274Z,23.00
2018-06-10T07:03:01.300Z,20.20
2018-06-10T07:05:30.233Z,20.03
2018-06-10T07:07:59.116Z,20.40
2018-06-10T07:10:29.275Z,21.03
2018-06-10T07:13:10.488Z,21.30
2018-06-10T07:15:39.917Z,20.80
2018-06-10T07:18:09.256Z,21.77
2018-06-10T07:20:38.362Z,20.30
2018-06-10T07:23:08.088Z,21.70
2018-06-10T07:25:37.625Z,22.37
2018-06-10T07:28:07.315Z,20.43
2018-06-10T07:30:36.943Z,19.00
2018-06-10T07:33:06.947Z,18.10
2018-06-10T07:35:36.528Z,20.50
2018-06-10T07:38:07.177Z,20.27
2018-06-10T07:40:36.720Z,21.43
2018-06-10T07:43:09.672Z,21.37
2018-06-10T07:45:40.355Z,20.93
2018-06-10T07:48:10.955Z,20.30
2018-06-10T07:50:40.325Z,18.60
2018-06-10T07:53:11.373Z,18.33
2018-06-10T07:55:40.593Z,17.80
2018-06-10T07:58:10.350Z,15.67
2018-06-10T08:00:39.392Z,18.40
2018-06-10T08:03:08.576Z,17.57
2018-06-10T08:05:38.005Z,15.87
2018-06-10T08:08:09.316Z,14.53
2018-06-10T08:10:39.692Z,13.77
2018-06-10T08:13:09.816Z,16.60
2018-06-10T08:15:42.207Z,18.10
2018-06-10T08:18:11.743Z,17.50
2018-06-10T08:20:45.209Z,16.97
2018-06-10T08:23:15.235Z,18.33
2018-06-10T08:25:46.221Z,14.97
2018-06-10T08:28:16.700Z,14.40
2018-06-10T08:30:47.053Z,15.97
2018-06-10T08:33:19.029Z,17.23
2018-06-10T08:35:48.982Z,15.60
2018-06-10T08:38:18.806Z,16.20
2018-06-10T08:40:48.845Z,16.53
2018-06-10T08:43:18.814Z,17.57
2018-06-10T08:45:49.057Z,17.37
2018-06-10T08:48:18.654Z,17.93
2018-06-10T08:50:47.970Z,16.83
2018-06-10T08:53:17.307Z,15.80
2018-06-10T08:55:47.154Z,17.80
2018-06-10T08:58:20.285Z,18.80
2018-06-10T09:00:50.579Z,15.07
2018-06-10T09:03:19.889Z,13.53
2018-06-10T09:05:49.191Z,14.53
2018-06-10T09:08:18.359Z,13.80
2018-06-10T09:10:48.303Z,14.00
2018-06-10T09:13:18.201Z,13.30
2018-06-10T09:15:48.511Z,12.70
2018-06-10T09:18:17.597Z,12.30
2018-06-10T09:20:46.806Z,12.97
2018-06-10T09:23:17.723Z,13.97
2018-06-10T09:25:46.806Z,13.47
2018-06-10T09:28:16.115Z,13.60
2018-06-10T09:30:45.499Z,14.73
2018-06-10T09:33:14.487Z,15.40
2018-06-10T09:35:43.698Z,13.90
2018-06-10T09:38:13.391Z,13.00
2018-06-10T09:40:42.363Z,12.97
2018-06-10T09:43:11.881Z,13.30
2018-06-10T09:45:42.166Z,14.13
2018-06-10T09:48:13.297Z,13.90
2018-06-10T09:50:43.370Z,14.70
2018-06-10T09:53:12.365Z,14.47
2018-06-10T09:55:41.593Z,15.00
2018-06-10T09:58:11.119Z,13.27
2018-06-10T10:00:40.813Z,14.10
2018-06-10T10:03:09.838Z,14.90
2018-06-10T10:05:39.761Z,14.20
2018-06-10T10:08:08.800Z,13.40
2018-06-10T10:10:37.897Z,13.57
2018-06-10T10:13:06.801Z,13.30
2018-06-10T10:15:35.986Z,14.47
2018-06-10T10:18:05.893Z,14.30
2018-06-10T10:20:35.502Z,13.23
2018-06-10T10:23:05.483Z,12.77
2018-06-10T10:25:34.709Z,13.00
2018-06-10T10:28:04.290Z,13.60
2018-06-10T10:30:33.728Z,13.17
2018-06-10T10:33:03.148Z,12.07
2018-06-10T10:35:33.205Z,12.57
2018-06-10T10:38:02.364Z,11.93
2018-06-10T10:40:31.193Z,13.90
2018-06-10T10:43:00.626Z,12.10
2018-06-10T10:45:29.892Z,13.90
2018-06-10T10:47:59.141Z,12.73
2018-06-10T10:50:28.350Z,12.97
2018-06-10T10:52:57.206Z,14.23
2018-06-10T10:55:27.104Z,14.20
2018-06-10T10:57:56.441Z,13.10
2018-06-10T11:00:26.143Z,13.53
2018-06-10T11:03:02.432Z,13.80
2018-06-10T11:05:31.186Z,12.40
2018-06-10T11:08:00.194Z,13.13
2018-06-10T11:10:29.013Z,14.23
2018-06-10T11:12:58.516Z,13.67
2018-06-10T11:15:27.273Z,12.03
2018-06-10T11:17:56.342Z,12.53
2018-06-10T11:20:25.415Z,12.93
2018-06-10T11:22:55.158Z,13.43
2018-06-10T11:25:24.558Z,13.20
2018-06-10T11:27:53.719Z,12.93
2018-06-10T11:30:22.806Z,13.03
2018-06-10T11:32:51.943Z,12.40
2018-06-10T11:35:21.039Z,12.37
2018-06-10T11:37:49.899Z,11.00
2018-06-10T11:40:19.009Z,11.50
2018-06-10T11:42:47.843Z,9.40
2018-06-10T11:45:17.822Z,11.57
2018-06-10T11:47:47.223Z,10.60
2018-06-10T11:50:16.353Z,11.27
2018-06-10T11:52:45.576Z,11.00
2018-06-10T11:55:14.442Z,11.40
2018-06-10T11:57:43.569Z,10.67
2018-06-10T12:00:12.459Z,10.83
2018-06-10T12:02:46.795Z,9.80
2018-06-10T12:05:18.688Z,9.57
2018-06-10T12:07:47.670Z,9.93
2018-06-10T12:10:16.929Z,10.50
2018-06-10T12:12:50.075Z,11.80
2018-06-10T12:15:19.821Z,12.80
2018-06-10T12:17:48.704Z,11.90
2018-06-10T12:20:19.063Z,12.67
2018-06-10T12:22:54.939Z,12.83
2018-06-10T12:25:31.095Z,13.17
2018-06-10T12:28:00.319Z,11.97
2018-06-10T12:30:29.822Z,14.03
2018-06-10T12:32:59.184Z,12.80
2018-06-10T12:35:28.134Z,13.80
2018-06-10T12:37:57.379Z,12.80
2018-06-10T12:40:27.065Z,12.77
2018-06-10T12:42:56.344Z,12.87
2018-06-10T12:45:25.313Z,12.73
2018-06-10T12:47:54.209Z,12.00
2018-06-10T12:50:23.604Z,13.30
2018-06-10T12:52:53.216Z,13.20
2018-06-10T12:55:26.821Z,13.50
2018-06-10T12:57:56.061Z,13.97
2018-06-10T13:00:27.449Z,12.90
2018-06-10T13:02:56.892Z,14.23
2018-06-10T13:05:26.083Z,14.83
2018-06-10T13:07:55.687Z,13.63
2018-06-10T13:10:28.807Z,13.93
2018-06-10T13:12:58.624Z,12.90
2018-06-10T13:15:27.644Z,13.73
2018-06-10T13:17:57.406Z,13.03
2018-06-10T13:20:27.196Z,14.70
2018-06-10T13:22:56.403Z,12.67
2018-06-10T13:25:30.916Z,14.40
2018-06-10T13:28:00.366Z,13.07
2018-06-10T13:30:29.298Z,14.70
2018-06-10T13:32:58.448Z,15.20
2018-06-10T13:35:28.863Z,15.87
2018-06-10T13:37:57.954Z,17.07
2018-06-10T13:40:27.400Z,16.47
2018-06-10T13:42:56.414Z,16.57
2018-06-10T13:45:25.558Z,14.40
2018-06-10T13:47:55.114Z,16.57
2018-06-10T13:50:26.808Z,16.00
2018-06-10T13:52:56.788Z,17.00
2018-06-10T13:55:25.636Z,16.50
2018-06-10T13:57:56.552Z,14.80
2018-06-10T14:00:26.014Z,15.13
2018-06-10T14:02:55.131Z,15.20
2018-06-10T14:05:24.294Z,14.97
2018-06-10T14:07:59.154Z,14.27
2018-06-10T14:10:28.383Z,14.53
2018-06-10T14:12:57.629Z,13.50
2018-06-10T14:15:27.572Z,15.30
2018-06-10T14:17:56.438Z,16.30
2018-06-10T14:20:25.388Z,15.30
2018-06-10T14:22:54.602Z,17.93
2018-06-10T14:25:24.047Z,15.53
2018-06-10T14:27:53.802Z,15.07
2018-06-10T14:30:22.919Z,17.30
2018-06-10T14:32:52.357Z,15.73
2018-06-10T14:35:21.971Z,15.37
2018-06-10T14:37:51.889Z,15.83
2018-06-10T14:40:20.944Z,15.43
2018-06-10T14:42:58.416Z,15.53
2018-06-10T14:45:27.913Z,15.13
2018-06-10T14:47:57.167Z,15.23
2018-06-10T14:50:29.909Z,14.93
2018-06-10T14:52:58.896Z,15.10
2018-06-10T14:55:28.190Z,15.80
2018-06-10T14:57:57.191Z,15.00
2018-06-10T15:00:26.605Z,13.47
2018-06-10T15:02:56.077Z,14.90
2018-06-10T15:05:27.421Z,16.60
2018-06-10T15:07:56.749Z,14.03
2018-06-10T15:10:26.093Z,14.43
2018-06-10T15:12:55.719Z,14.10
2018-06-10T15:15:26.878Z,14.27
2018-06-10T15:17:56.563Z,15.03
2018-06-10T15:20:27.773Z,12.83
2018-06-10T15:22:57.226Z,14.50
2018-06-10T15:25:26.198Z,11.93
2018-06-10T15:27:56.924Z,14.40
2018-06-10T15:30:26.293Z,13.37
2018-06-10T15:33:00.596Z,11.80
2018-06-10T15:35:29.827Z,12.20
2018-06-10T15:37:58.776Z,12.13
2018-06-10T15:40:27.590Z,11.47
2018-06-10T15:42:57.209Z,11.17
2018-06-10T15:45:26.059Z,10.27
2018-06-10T15:47:55.140Z,10.20
2018-06-10T15:50:24.808Z,10.67
2018-06-10T15:52:53.964Z,12.33
2018-06-10T15:55:23.235Z,10.53
2018-06-10T15:57:52.610Z,13.97
2018-06-10T16:00:22.009Z,11.97
2018-06-10T16:02:53.096Z,11.37
2018-06-10T16:05:22.476Z,10.90
2018-06-10T16:07:51.889Z,11.63
2018-06-10T16:10:22.030Z,11.40
2018-06-10T16:12:51.398Z,9.90
2018-06-10T16:15:22.951Z,10.23
2018-06-10T16:17:55.089Z,10.53
2018-06-10T16:20:24.809Z,10.90
2018-06-10T16:23:02.086Z,11.03
2018-06-10T16:25:30.995Z,12.60
2018-06-10T16:28:02.489Z,12.17
2018-06-10T16:30:31.871Z,13.33
2018-06-10T16:33:01.757Z,12.33
2018-06-10T16:35:30.863Z,12.30
2018-06-10T16:38:00.233Z,12.47
2018-06-10T16:40:29.280Z,11.23
2018-06-10T16:42:58.671Z,11.90
2018-06-10T16:45:26.620Z,11.50
2018-06-10T16:47:56.130Z,10.80
2018-06-10T16:50:25.165Z,11.90
2018-06-10T16:52:54.298Z,11.27
2018-06-10T16:55:23.302Z,11.17
2018-06-10T16:57:52.719Z,10.27
2018-06-10T17:00:21.710Z,10.90
2018-06-10T17:02:51.164Z,9.33
2018-06-10T17:05:20.433Z,10.87
2018-06-10T17:07:49.316Z,11.57
2018-06-10T17:10:19.413Z,11.50
2018-06-10T17:12:49.297Z,11.13
2018-06-10T17:15:18.905Z,10.63
2018-06-10T17:17:47.838Z,11.10
2018-06-10T17:20:16.864Z,11.90
2018-06-10T17:22:47.918Z,11.57
2018-06-10T17:25:17.880Z,11.27
2018-06-10T17:27:47.457Z,11.67
2018-06-10T17:30:16.419Z,13.23
2018-06-10T17:32:45.420Z,11.37
2018-06-10T17:35:15.953Z,13.50
2018-06-10T17:37:45.105Z,11.20
2018-06-10T17:40:14.077Z,13.03
2018-06-10T17:42:43.029Z,12.63
2018-06-10T17:45:12.040Z,10.70
2018-06-10T17:47:41.387Z,11.63
2018-06-10T17:50:10.215Z,9.43
2018-06-10T17:52:39.123Z,8.90
2018-06-10T17:55:08.359Z,9.27
2018-06-10T17:57:37.391Z,9.80
2018-06-10T18:00:06.422Z,9.37
2018-06-10T18:02:35.517Z,8.70
2018-06-10T18:05:04.427Z,7.53
2018-06-10T18:07:33.542Z,8.13
2018-06-10T18:10:03.590Z,8.20
2018-06-10T18:12:33.087Z,7.63
2018-06-10T18:15:01.954Z,8.03
2018-06-10T18:17:31.337Z,7.93
2018-06-10T18:20:00.271Z,8.17
2018-06-10T18:22:29.418Z,7.43
2018-06-10T18:24:59.148Z,8.30
2018-06-10T18:27:28.007Z,9.00
2018-06-10T18:29:57.437Z,7.57
2018-06-10T18:32:26.616Z,8.27
2018-06-10T18:34:56.104Z,7.30
2018-06-10T18:37:25.447Z,7.17
2018-06-10T18:39:54.309Z,8.17
2018-06-10T18:42:23.097Z,6.60
2018-06-10T18:44:51.905Z,7.93
2018-06-10T18:47:20.758Z,7.57
2018-06-10T18:49:49.685Z,7.87
2018-06-10T18:52:19.327Z,7.20
2018-06-10T18:54:48.195Z,8.47
2018-06-10T18:57:17.682Z,7.60
2018-06-10T18:59:46.919Z,7.37
2018-06-10T19:02:16.209Z,7.10
2018-06-10T19:04:45.581Z,6.90
2018-06-10T19:07:14.705Z,6.90
2018-06-10T19:09:43.651Z,6.97
2018-06-10T19:12:13.454Z,6.50
2018-06-10T19:14:42.320Z,6.37
2018-06-10T19:17:11.661Z,6.13
2018-06-10T19:19:41.576Z,5.10
2018-06-10T19:22:10.686Z,6.33
2018-06-10T19:24:39.838Z,5.70
2018-06-10T19:27:08.644Z,6.07
2018-06-10T19:29:38.098Z,5.90
2018-06-10T19:32:07.056Z,7.00
2018-06-10T19:34:36.494Z,6.60
2018-06-10T19:37:05.819Z,6.97
2018-06-10T19:39:35.540Z,6.87
2018-06-10T19:42:04.322Z,7.23
2018-06-10T19:44:33.639Z,7.73
2018-06-10T19:47:02.822Z,6.13
2018-06-10T19:49:31.713Z,6.70
2018-06-10T19:52:01.281Z,7.67
2018-06-10T19:54:33.224Z,8.23
2018-06-10T19:57:02.114Z,6.93
2018-06-10T19:59:30.915Z,6.07
2018-06-10T20:02:00.472Z,6.07
2018-06-10T20:04:29.252Z,5.93
2018-06-10T20:06:58.047Z,5.30
2018-06-10T20:09:27.224Z,5.87
2018-06-10T20:11:56.268Z,5.27
2018-06-10T20:14:25.958Z,6.70
2018-06-10T20:16:55.530Z,5.67
2018-06-10T20:19:24.335Z,6.83
2018-06-10T20:21:53.656Z,6.00
2018-06-10T20:24:22.776Z,6.23
2018-06-10T20:26:52.107Z,6.10
2018-06-10T20:29:21.112Z,5.73
2018-06-10T20:31:50.178Z,5.53
2018-06-10T20:34:19.268Z,6.37
2018-06-10T20:36:48.109Z,6.20
2018-06-10T20:39:16.900Z,6.40
2018-06-10T20:41:45.763Z,5.87
2018-06-10T20:44:15.096Z,6.30
2018-06-10T20:46:43.891Z,6.80
2018-06-10T20:49:12.677Z,6.43
2018-06-10T20:51:42.389Z,5.97
2018-06-10T20:54:11.847Z,6.50
2018-06-10T20:56:40.701Z,5.60
2018-06-10T20:59:09.761Z,6.87
2018-06-10T21:01:38.869Z,6.33
2018-06-10T21:04:08.845Z,6.60
2018-06-10T21:06:38.882Z,6.60
2018-06-10T21:09:08.689Z,7.57
2018-06-10T21:11:37.862Z,6.30
2018-06-10T21:14:08.013Z,7.10
2018-06-10T21:16:36.915Z,6.20
2018-06-10T21:19:06.020Z,5.43
2018-06-10T21:21:34.924Z,5.53
2018-06-10T21:24:04.061Z,5.87
2018-06-10T21:26:33.245Z,6.07
2018-06-10T21:29:02.249Z,6.07
2018-06-10T21:31:31.508Z,6.30
2018-06-10T21:34:00.539Z,6.23
2018-06-10T21:36:29.681Z,6.20
2018-06-10T21:38:58.809Z,6.77
2018-06-10T21:41:28.039Z,6.23
2018-06-10T21:43:56.942Z,5.90
2018-06-10T21:46:26.080Z,6.13
2018-06-10T21:48:55.442Z,6.40
2018-06-10T21:51:25.239Z,6.50
2018-06-10T21:53:54.189Z,6.07
2018-06-10T21:56:23.260Z,5.30
2018-06-10T21:58:52.172Z,6.40
2018-06-10T22:01:21.335Z,5.40
2018-06-10T22:03:50.728Z,5.53
2018-06-10T22:06:19.760Z,5.60
2018-06-10T22:08:49.143Z,5.30
2018-06-10T22:11:18.358Z,5.70
2018-06-10T22:13:47.619Z,6.00
2018-06-10T22:16:16.725Z,5.47
2018-06-10T22:18:45.623Z,6.03
2018-06-10T22:21:14.811Z,6.37
2018-06-10T22:23:44.306Z,6.20
2018-06-10T22:26:13.300Z,5.33
2018-06-10T22:28:42.154Z,6.27
2018-06-10T22:31:11.015Z,5.97
2018-06-10T22:33:40.467Z,5.83
2018-06-10T22:36:09.313Z,5.73
2018-06-10T22:38:38.155Z,5.70
2018-06-10T22:41:07.325Z,5.07
2018-06-10T22:43:36.413Z,5.57
2018-06-10T22:46:05.370Z,6.20
2018-06-10T22:48:34.771Z,5.77
2018-06-10T22:51:04.024Z,6.90
2018-06-10T22:53:45.545Z,5.90
2018-06-10T22:56:14.433Z,6.53
2018-06-10T22:58:43.608Z,5.67
2018-06-10T23:01:12.629Z,6.30
2018-06-10T23:03:42.182Z,8.23
2018-06-10T23:06:11.929Z,6.00
2018-06-10T23:08:41.005Z,8.07
2018-06-10T23:11:10.190Z,6.30
2018-06-10T23:13:39.755Z,6.23
2018-06-10T23:16:09.790Z,6.63
2018-06-10T23:18:39.117Z,7.30
2018-06-10T23:21:08.284Z,6.77
2018-06-10T23:23:37.139Z,7.13
2018-06-10T23:26:06.660Z,7.00
2018-06-10T23:28:36.429Z,6.60
2018-06-10T23:31:05.559Z,6.80
2018-06-10T23:33:34.793Z,7.07
2018-06-10T23:36:03.900Z,8.50
2018-06-10T23:38:33.502Z,7.20
2018-06-10T23:41:03.018Z,7.33
2018-06-10T23:43:32.158Z,8.17
2018-06-10T23:46:01.822Z,7.60
2018-06-10T23:48:31.640Z,6.97
2018-06-10T23:51:00.471Z,6.83
2018-06-10T23:53:29.553Z,6.70
2018-06-10T23:55:59.068Z,7.30
2018-06-10T23:58:28.112Z,6.20
